Time;durP1;ratioP1;P1;durP2;ratioP2;P2;SDS_P1;SDS_P2;PMS_P1;PMS_P2;Temp;Humidity;BMP_temperature;BMP_pressure;BME280_temperature;BME280_humidity;BME280_pressure;Samples;Min_cycle;Max_cycle;Signal;HPM_P1;HPM_P2
2022/01/23 00:01:09;;;;;;;;;;;;;;;;;;2204538;67;29358;-69
2022/01/23 00:03:47;;;;;;;;;;;;;;;;;;2200954;59;93418;-69
2022/01/23 00:06:26;;;;;;;;;;;;;;;;;;2202924;59;16243;-69
2022/01/23 00:09:02;;;;;;;;;;;;;;;;;;2201378;59;18497;-69
2022/01/23 00:11:42;;;;;;;;;;;;;;;;;;1434835;59;51968822;-69
2022/01/23 00:20:00;;;;;;;;;;;;;;;;;;2203095;67;19276;-69
2022/01/23 00:22:54;;;;;;;;;;;;;;;;;;2115232;59;6003686;-69
2022/01/23 00:31:06;;;;;;;;;;;;;;;;;;2203635;59;18847;-69
2022/01/23 00:33:39;;;;;;;;;;;;;;;;;;2202400;59;74403;-68
2022/01/23 00:36:15;;;;;;;;;;;;;;;;;;2203224;59;86260;-69
2022/01/23 00:38:48;;;;;;;;;;;;;;;;;;2202154;59;29908;-69
2022/01/23 00:41:29;;;;;;;;;;;;;;;;;;2201584;59;31324;-69
2022/01/23 00:44:07;;;;;;;;;;;;;;;;;;2202707;59;40394;-68
2022/01/23 00:46:48;;;;;;;;;;;;;;;;;;2200010;59;217222;-69
2022/01/23 00:49:27;;;;;;;;;;;;;;;;;;2203762;60;21025;-69
2022/01/23 00:52:17;;;;;;;;;;;;;;;;;;2170977;59;2143763;-69
2022/01/23 00:54:50;;;;;;;;;;;;;;;;;;1756695;59;30525705;-69
2022/01/23 00:57:24;;;;;;;;;;;;;;;;;;2200786;59;99879;-69
2022/01/23 00:59:57;;;;;;;;;;;;;;;;;;2204886;67;53027;-69
2022/01/23 01:02:31;;;;;;;;;;;;;;;;;;2203881;67;28370;-68
2022/01/23 01:05:05;;;;;;;;;;;;;;;;;;2203030;67;17559;-68
2022/01/23 01:07:41;;;;;;;;;;;;;;;;;;2200261;59;85544;-69
2022/01/23 01:10:21;;;;;;;;;;;;;;;;;;1988327;59;14546846;-69
2022/01/23 01:12:59;;;;;;;;;;;;;;;;;;2203417;59;25255;-68
2022/01/23 01:15:41;;;;;;;;;;;;;;;;;;2198038;59;143907;-69
2022/01/23 01:32:39;;;;;;;;;;;;;;;;;;2211866;53;14101;-68
2022/01/23 01:35:22;;;;;;;;;;;;;;;;;;2211649;59;15379;-69
2022/01/23 01:37:56;;;;;;;;;;;;;;;;;;2212129;59;24323;-68
2022/01/23 01:40:32;;;;;;;;;;;;;;;;;;2213624;67;18108;-69
2022/01/23 01:43:06;;;;;;;;;;;;;;;;;;2212558;63;16264;-69
2022/01/23 01:45:41;;;;;;;;;;;;;;;;;;2212125;59;25277;-69
2022/01/23 01:48:18;;;;;;;;;;;;;;;;;;2213583;59;15204;-69
2022/01/23 01:50:53;;;;;;;;;;;;;;;;;;2212712;59;14806;-69
2022/01/23 01:53:27;;;;;;;;;;;;;;;;;;2212550;59;16250;-68
2022/01/23 01:56:05;;;;;;;;;;;;;;;;;;2213477;59;14607;-69
2022/01/23 02:09:51;;;;;;;;;;;;;;;;;;2211899;59;17307;-68
2022/01/23 02:12:58;;;;;;;;;;;;;;;;;;2212873;59;23088;-69
2022/01/23 02:18:42;;;;;;;;;;;;;;;;;;2211557;59;18032;-69
2022/01/23 02:25:04;;;;;;;;;;;;;;;;;;2196159;59;30998;-68
2022/01/23 02:50:51;;;;;;;;;;;;;;;;;;2212341;59;16919;-69
2022/01/23 02:53:38;;;;;;;;;;;;;;;;;;2211460;59;25791;-69
2022/01/23 02:56:20;;;;;;;;;;;;;;;;;;2213661;59;21014;-69
2022/01/23 02:59:10;;;;;;;;;;;;;;;;;;2213279;59;24083;-69
2022/01/23 03:01:59;;;;;;;;;;;;;;;;;;2210644;59;22338;-68
2022/01/23 03:04:37;;;;;;;;;;;;;;;;;;2212808;59;21840;-68
2022/01/23 03:07:18;;;;;;;;;;;;;;;;;;2213015;63;18429;-69
2022/01/23 03:10:00;;;;;;;;;;;;;;;;;;2212412;66;38770;-69
2022/01/23 03:15:31;;;;;;;;;;;;;;;;;;2211524;59;19763;-69
2022/01/23 03:24:16;;;;;;;;;;;;;;;;;;2199209;59;23344;-69
2022/01/23 03:27:24;;;;;;;;;;;;;;;;;;2212176;59;14061;-68
2022/01/23 03:30:14;;;;;;;;;;;;;;;;;;2212564;59;16923;-69
2022/01/23 03:32:49;;;;;;;;;;;;;;;;;;2213189;59;21790;-69
2022/01/23 03:35:23;;;;;;;;;;;;;;;;;;2212795;59;24907;-68
2022/01/23 03:37:56;;;;;;;;;;;;;;;;;;2213127;59;16366;-69
2022/01/23 03:40:30;;;;;;;;;;;;;;;;;;2213846;59;21111;-69
2022/01/23 03:43:09;;;;;;;;;;;;;;;;;;2213781;63;19728;-69
2022/01/23 03:51:19;;;;;;;;;;;;;;;;;;2212913;59;17543;-69
2022/01/23 03:53:53;;;;;;;;;;;;;;;;;;2212377;59;17894;-69
2022/01/23 03:56:26;;;;;;;;;;;;;;;;;;2213906;66;26939;-69
2022/01/23 03:59:00;;;;;;;;;;;;;;;;;;2213198;59;15676;-68
2022/01/23 04:01:36;;;;;;;;;;;;;;;;;;2212769;67;21394;-69
2022/01/23 04:04:23;;;;;;;;;;;;;;;;;;2213778;59;23602;-69
2022/01/23 04:06:56;;;;;;;;;;;;;;;;;;2212960;67;22609;-69
2022/01/23 04:09:30;;;;;;;;;;;;;;;;;;2213117;63;20923;-69
2022/01/23 04:12:04;;;;;;;;;;;;;;;;;;2213081;59;23470;-69
2022/01/23 04:14:44;;;;;;;;;;;;;;;;;;2213326;59;18816;-69
2022/01/23 04:20:32;;;;;;;;;;;;;;;;;;2207791;67;24907;-69
2022/01/23 04:32:04;;;;;;;;;;;;;;;;;;2194279;59;19822;-70
2022/01/23 04:34:55;;;;;;;;;;;;;;;;;;2208251;67;16200;-69
2022/01/23 04:46:10;;;;;;;;;;;;;;;;;;2210822;59;29332;-69
2022/01/23 04:59:30;;;;;;;;;;;;;;;;;;2213606;59;14386;-69
2022/01/23 05:00:33;;;;;;;;;;;;;;;;;;2211930;59;28938;-69
2022/01/23 05:03:48;;;;;;;;;;;;;;;;;;2213747;67;29557;-69
2022/01/23 05:06:20;;;;;;;;;;;;;;;;;;2212222;67;21695;-69
2022/01/23 05:08:56;;;;;;;;;;;;;;;;;;2213171;59;18278;-69
2022/01/23 05:11:29;;;;;;;;;;;;;;;;;;2212668;59;19197;-69
2022/01/23 05:14:03;;;;;;;;;;;;;;;;;;2213568;58;16726;-69
2022/01/23 05:16:36;;;;;;;;;;;;;;;;;;2213282;59;24110;-69
2022/01/23 05:19:10;;;;;;;;;;;;;;;;;;2211566;58;19066;-69
2022/01/23 05:24:35;;;;;;;;;;;;;;;;;;2212853;59;19227;-69
2022/01/23 05:27:10;;;;;;;;;;;;;;;;;;2212876;59;21485;-69
2022/01/23 05:29:44;;;;;;;;;;;;;;;;;;2213091;59;20035;-70
2022/01/23 05:32:17;;;;;;;;;;;;;;;;;;2212852;59;26569;-69
2022/01/23 05:34:50;;;;;;;;;;;;;;;;;;2213188;59;16383;-69
2022/01/23 05:37:23;;;;;;;;;;;;;;;;;;2212602;63;25253;-69
2022/01/23 05:39:59;;;;;;;;;;;;;;;;;;2213202;59;16312;-69
2022/01/23 05:42:32;;;;;;;;;;;;;;;;;;2213490;63;18305;-69
2022/01/23 05:45:06;;;;;;;;;;;;;;;;;;2213024;67;24083;-69
2022/01/23 05:47:39;;;;;;;;;;;;;;;;;;2212281;59;24138;-69
2022/01/23 05:50:12;;;;;;;;;;;;;;;;;;2213769;63;15838;-69
2022/01/23 05:52:45;;;;;;;;;;;;;;;;;;2212016;59;24877;-69
2022/01/23 05:55:21;;;;;;;;;;;;;;;;;;2212590;59;21103;-69
2022/01/23 05:57:54;;;;;;;;;;;;;;;;;;2211312;59;22367;-69
2022/01/23 06:00:28;;;;;;;;;;;;;;;;;;2213204;67;15090;-70
2022/01/23 06:03:01;;;;;;;;;;;;;;;;;;2212874;63;18922;-69
2022/01/23 06:05:34;;;;;;;;;;;;;;;;;;2212593;58;27715;-69
2022/01/23 06:08:07;;;;;;;;;;;;;;;;;;2213836;66;19291;-69
2022/01/23 06:10:54;;;;;;;;;;;;;;;;;;2213385;59;16570;-69
2022/01/23 06:13:28;;;;;;;;;;;;;;;;;;2211449;59;55011;-69
2022/01/23 06:16:02;;;;;;;;;;;;;;;;;;2212882;59;14600;-69
2022/01/23 06:18:38;;;;;;;;;;;;;;;;;;2213152;59;24723;-69
2022/01/23 06:21:12;;;;;;;;;;;;;;;;;;2213022;63;14781;-69
2022/01/23 06:23:46;;;;;;;;;;;;;;;;;;2212375;59;17865;-69
2022/01/23 06:26:22;;;;;;;;;;;;;;;;;;2212883;59;16363;-69
2022/01/23 06:28:57;;;;;;;;;;;;;;;;;;2212352;59;69749;-69
2022/01/23 06:31:30;;;;;;;;;;;;;;;;;;2212271;59;17841;-69
2022/01/23 06:34:05;;;;;;;;;;;;;;;;;;2213583;59;18918;-70
2022/01/23 06:36:39;;;;;;;;;;;;;;;;;;2213493;59;22274;-69
2022/01/23 06:39:13;;;;;;;;;;;;;;;;;;2213331;66;16277;-69
2022/01/23 06:41:48;;;;;;;;;;;;;;;;;;2212496;59;17958;-69
2022/01/23 06:44:22;;;;;;;;;;;;;;;;;;2213286;67;23305;-69
2022/01/23 06:46:56;;;;;;;;;;;;;;;;;;2212987;59;18039;-69
2022/01/23 06:49:29;;;;;;;;;;;;;;;;;;2212499;59;18133;-70
2022/01/23 06:52:02;;;;;;;;;;;;;;;;;;2212909;59;23435;-69
2022/01/23 06:54:35;;;;;;;;;;;;;;;;;;2212825;59;17493;-69
2022/01/23 06:57:11;;;;;;;;;;;;;;;;;;2212483;67;28688;-70
2022/01/23 06:59:45;;;;;;;;;;;;;;;;;;2212474;58;20838;-69
2022/01/23 07:02:18;;;;;;;;;;;;;;;;;;2213703;67;16824;-69
2022/01/23 07:04:51;;;;;;;;;;;;;;;;;;2212344;59;16106;-69
2022/01/23 07:07:24;;;;;;;;;;;;;;;;;;2212179;59;28165;-69
2022/01/23 07:09:57;;;;;;;;;;;;;;;;;;2212696;59;34667;-69
2022/01/23 07:12:33;;;;;;;;;;;;;;;;;;2212020;59;15867;-69
2022/01/23 07:15:07;;;;;;;;;;;;;;;;;;2212503;59;21036;-69
2022/01/23 07:17:43;;;;;;;;;;;;;;;;;;2211163;59;22436;-69
2022/01/23 07:20:16;;;;;;;;;;;;;;;;;;2213393;59;23757;-69
2022/01/23 07:22:49;;;;;;;;;;;;;;;;;;2211258;59;19507;-69
2022/01/23 07:25:22;;;;;;;;;;;;;;;;;;2211831;59;22800;-69
2022/01/23 07:28:00;;;;;;;;;;;;;;;;;;2211395;67;18573;-69
2022/01/23 07:33:08;;;;;;;;;;;;;;;;;;2213969;59;15568;-70
2022/01/23 07:35:43;;;;;;;;;;;;;;;;;;2182876;59;1972858;-69
2022/01/23 07:38:17;;;;;;;;;;;;;;;;;;2213435;59;49162;-70
2022/01/23 07:40:51;;;;;;;;;;;;;;;;;;2215718;59;22925;-69
2022/01/23 07:43:28;;;;;;;;;;;;;;;;;;2190131;59;2146369;-69
2022/01/23 07:46:07;;;;;;;;;;;;;;;;;;2214578;59;19380;-69
2022/01/23 07:48:40;;;;;;;;;;;;;;;;;;2213109;59;71037;-69
2022/01/23 07:51:14;;;;;;;;;;;;;;;;;;2214004;59;15847;-69
2022/01/23 07:53:47;;;;;;;;;;;;;;;;;;2210674;59;96243;-69
2022/01/23 07:56:21;;;;;;;;;;;;;;;;;;2213179;59;23590;-69
2022/01/23 07:58:57;;;;;;;;;;;;;;;;;;2174027;59;2700531;-69
2022/01/23 08:01:31;;;;;;;;;;;;;;;;;;2211994;59;67447;-69
2022/01/23 08:04:05;;;;;;;;;;;;;;;;;;2214034;59;25998;-69
2022/01/23 08:06:45;;;;;;;;;;;;;;;;;;2213515;59;41847;-70
2022/01/23 08:09:18;;;;;;;;;;;;;;;;;;2213431;59;17784;-69
2022/01/23 08:12:01;;;;;;;;;;;;;;;;;;2207722;59;70255;-69
2022/01/23 08:14:52;;;;;;;;;;;;;;;;;;2213160;66;58710;-70
2022/01/23 08:17:26;;;;;;;;;;;;;;;;;;2213118;59;22389;-70
2022/01/23 08:20:01;;;;;;;;;;;;;;;;;;2211335;59;224741;-69
2022/01/23 08:22:38;;;;;;;;;;;;;;;;;;2212665;66;79805;-69
2022/01/23 08:25:12;;;;;;;;;;;;;;;;;;2212402;58;83957;-69
2022/01/23 08:27:51;;;;;;;;;;;;;;;;;;2213620;59;20653;-69
2022/01/23 08:30:33;;;;;;;;;;;;;;;;;;2215419;59;20300;-70
2022/01/23 08:33:06;;;;;;;;;;;;;;;;;;2214055;59;20960;-70
2022/01/23 08:35:42;;;;;;;;;;;;;;;;;;2212396;59;26441;-71
2022/01/23 08:38:16;;;;;;;;;;;;;;;;;;2210523;59;59092;-69
2022/01/23 08:41:49;;;;;;;;;;;;;;;;;;2209121;59;40759;-69
2022/01/23 08:43:43;;;;;;;;;;;;;;;;;;2210534;59;80730;-69
2022/01/23 08:46:20;;;;;;;;;;;;;;;;;;2213576;59;15653;-70
2022/01/23 08:48:53;;;;;;;;;;;;;;;;;;2213566;59;25871;-69
2022/01/23 08:51:26;;;;;;;;;;;;;;;;;;2173415;59;2027377;-69
2022/01/23 08:54:00;;;;;;;;;;;;;;;;;;2212073;59;24873;-69
2022/01/23 08:56:33;;;;;;;;;;;;;;;;;;2212693;59;72869;-69
2022/01/23 08:59:07;;;;;;;;;;;;;;;;;;2127832;66;5828382;-69
2022/01/23 09:01:43;;;;;;;;;;;;;;;;;;2186620;59;1709118;-70
2022/01/23 09:04:17;;;;;;;;;;;;;;;;;;2210037;59;60718;-70
2022/01/23 09:06:51;;;;;;;;;;;;;;;;;;2210254;63;20883;-70
2022/01/23 09:09:29;;;;;;;;;;;;;;;;;;2213083;59;27499;-69
2022/01/23 09:12:06;;;;;;;;;;;;;;;;;;2212201;59;27070;-69
2022/01/23 09:14:40;;;;;;;;;;;;;;;;;;2211554;59;21882;-69
2022/01/23 09:17:16;;;;;;;;;;;;;;;;;;2213758;58;13848;-69
2022/01/23 09:19:55;;;;;;;;;;;;;;;;;;2210122;59;90465;-70
2022/01/23 09:22:31;;;;;;;;;;;;;;;;;;2211816;59;73044;-70
2022/01/23 09:25:07;;;;;;;;;;;;;;;;;;2208467;59;265578;-69
2022/01/23 09:27:41;;;;;;;;;;;;;;;;;;2213165;63;26514;-69
2022/01/23 09:30:23;;;;;;;;;;;;;;;;;;2211774;59;23698;-69
2022/01/23 09:33:12;;;;;;;;;;;;;;;;;;2211832;59;16433;-69
2022/01/23 09:35:48;;;;;;;;;;;;;;;;;;2211198;59;49122;-70
2022/01/23 09:38:22;;;;;;;;;;;;;;;;;;2212307;59;51666;-70
2022/01/23 09:40:57;;;;;;;;;;;;;;;;;;2212715;59;20485;-70
2022/01/23 09:43:32;;;;;;;;;;;;;;;;;;2208625;59;96241;-69
2022/01/23 09:46:06;;;;;;;;;;;;;;;;;;2213000;66;15759;-70
2022/01/23 09:48:48;;;;;;;;;;;;;;;;;;2211404;59;27554;-70
2022/01/23 09:51:27;;;;;;;;;;;;;;;;;;2210472;59;30270;-70
2022/01/23 09:54:00;;;;;;;;;;;;;;;;;;2208194;59;79273;-69
2022/01/23 09:56:35;;;;;;;;;;;;;;;;;;1903655;59;20903188;-70
2022/01/23 09:59:10;;;;;;;;;;;;;;;;;;2214330;59;28056;-70
2022/01/23 10:01:45;;;;;;;;;;;;;;;;;;2211199;59;31440;-71
2022/01/23 10:04:19;;;;;;;;;;;;;;;;;;2213634;59;15391;-70
2022/01/23 10:06:55;;;;;;;;;;;;;;;;;;2215249;59;25169;-70
2022/01/23 10:09:31;;;;;;;;;;;;;;;;;;2211836;59;34843;-70
2022/01/23 10:12:28;;;;;;;;;;;;;;;;;;;;;
2022/01/23 10:15:05;;;;;;;;;;;;;;;;;;2210852;59;68455;-69
2022/01/23 10:17:38;;;;;;;;;;;;;;;;;;2100083;59;7674484;-70
2022/01/23 10:20:13;;;;;;;;;;;;;;;;;;2212663;59;17522;-70
2022/01/23 10:25:56;;;;;;;;;;;;;;;;;;2211340;59;24412;-70
2022/01/23 10:28:32;;;;;;;;;;;;;;;;;;2213377;59;22463;-70
2022/01/23 10:31:06;;;;;;;;;;;;;;;;;;2211863;59;31405;-69
2022/01/23 10:33:40;;;;;;;;;;;;;;;;;;2212104;59;29610;-70
2022/01/23 10:36:15;;;;;;;;;;;;;;;;;;2210813;59;39686;-70
2022/01/23 10:38:57;;;;;;;;;;;;;;;;;;2213769;59;54344;-70
2022/01/23 10:41:47;;;;;;;;;;;;;;;;;;2187517;59;1765931;-70
2022/01/23 10:47:45;;;;;;;;;;;;;;;;;;2205231;59;48064;-70
2022/01/23 10:50:20;;;;;;;;;;;;;;;;;;2212026;59;15857;-70
2022/01/23 10:52:53;;;;;;;;;;;;;;;;;;2208183;59;101745;-70
2022/01/23 10:55:27;;;;;;;;;;;;;;;;;;2207802;59;107269;-69
2022/01/23 10:58:06;;;;;;;;;;;;;;;;;;2213457;59;17788;-70
2022/01/23 11:00:42;;;;;;;;;;;;;;;;;;2211165;59;100356;-70
2022/01/23 11:03:16;;;;;;;;;;;;;;;;;;2212025;59;13893;-70
2022/01/23 11:05:51;;;;;;;;;;;;;;;;;;2206943;59;203729;-70
2022/01/23 11:08:25;;;;;;;;;;;;;;;;;;2209560;59;17720;-71
2022/01/23 11:11:03;;;;;;;;;;;;;;;;;;2211636;59;53122;-69
2022/01/23 11:19:24;;;;;;;;;;;;;;;;;;2213089;59;56727;-70
2022/01/23 11:22:04;;;;;;;;;;;;;;;;;;2212221;59;31666;-70
2022/01/23 11:24:42;;;;;;;;;;;;;;;;;;2210723;59;37858;-70
2022/01/23 11:27:16;;;;;;;;;;;;;;;;;;2212837;59;18758;-71
2022/01/23 11:30:00;;;;;;;;;;;;;;;;;;2210240;59;139578;-71
2022/01/23 11:32:37;;;;;;;;;;;;;;;;;;2212672;59;21096;-70
2022/01/23 11:35:13;;;;;;;;;;;;;;;;;;2210821;59;22172;-70
2022/01/23 11:37:50;;;;;;;;;;;;;;;;;;2209880;59;232329;-70
2022/01/23 11:40:38;;;;;;;;;;;;;;;;;;2215147;59;15017;-70
2022/01/23 11:54:38;;;;;;;;;;;;;;;;;;2213447;59;40481;-70
2022/01/23 11:57:30;;;;;;;;;;;;;;;;;;2213039;59;48419;-70
2022/01/23 12:00:07;;;;;;;;;;;;;;;;;;2212445;59;61121;-70
2022/01/23 12:02:44;;;;;;;;;;;;;;;;;;2215367;63;16909;-70
2022/01/23 12:05:27;;;;;;;;;;;;;;;;;;2214155;66;23524;-70
2022/01/23 12:08:39;;;;;;;;;;;;;;;;;;2211179;59;135726;-70
2022/01/23 12:17:15;;;;;;;;;;;;;;;;;;2207972;59;65519;-70
2022/01/23 12:19:53;;;;;;;;;;;;;;;;;;2212079;59;81103;-70
2022/01/23 12:22:41;;;;;;;;;;;;;;;;;;2213544;59;37479;-70
2022/01/23 12:25:19;;;;;;;;;;;;;;;;;;2214862;63;20039;-70
2022/01/23 12:28:13;;;;;;;;;;;;;;;;;;2214131;66;24358;-70
2022/01/23 12:30:47;;;;;;;;;;;;;;;;;;2214440;59;31320;-70
2022/01/23 12:33:26;;;;;;;;;;;;;;;;;;2215409;66;28370;-70
2022/01/23 12:36:07;;;;;;;;;;;;;;;;;;2212331;59;23270;-70
2022/01/23 12:38:41;;;;;;;;;;;;;;;;;;2215451;59;14297;-70
2022/01/23 12:41:21;;;;;;;;;;;;;;;;;;2215957;66;15108;-70
2022/01/23 12:43:55;;;;;;;;;;;;;;;;;;2214548;59;22421;-70
2022/01/23 12:46:30;;;;;;;;;;;;;;;;;;2212821;59;16048;-70
2022/01/23 12:49:25;;;;;;;;;;;;;;;;;;2214151;59;41339;-70
2022/01/23 12:52:13;;;;;;;;;;;;;;;;;;2212805;59;90386;-70
2022/01/23 12:54:58;;;;;;;;;;;;;;;;;;2213473;59;34818;-70
2022/01/23 12:57:39;;;;;;;;;;;;;;;;;;2210016;59;227301;-70
2022/01/23 13:00:16;;;;;;;;;;;;;;;;;;2213501;59;125316;-70
2022/01/23 13:02:52;;;;;;;;;;;;;;;;;;2214788;66;20827;-70
2022/01/23 13:05:25;;;;;;;;;;;;;;;;;;2213421;58;53007;-70
2022/01/23 13:08:08;;;;;;;;;;;;;;;;;;2213826;63;123441;-70
2022/01/23 13:11:19;;;;;;;;;;;;;;;;;;2213754;59;16430;-69
2022/01/23 13:13:59;;;;;;;;;;;;;;;;;;2211391;63;92172;-70
2022/01/23 13:17:12;;;;;;;;;;;;;;;;;;2214933;59;60097;-70
2022/01/23 13:26:22;;;;;;;;;;;;;;;;;;2211383;66;128646;-70
2022/01/23 13:31:16;;;;;;;;;;;;;;;;;;2214008;53;17971;-72
2022/01/23 13:33:49;;;;;;;;;;;;;;;;;;2210603;59;22289;-71
2022/01/23 13:36:22;;;;;;;;;;;;;;;;;;2213205;59;23241;-69
2022/01/23 13:38:56;;;;;;;;;;;;;;;;;;2213557;59;13099;-69
2022/01/23 13:41:45;;;;;;;;;;;;;;;;;;2212401;59;15190;-69
2022/01/23 13:53:10;;;;;;;;;;;;;;;;;;2204367;59;16050;-70
2022/01/23 13:58:37;;;;;;;;;;;;;;;;;;2210487;59;15095;-69
2022/01/23 14:01:34;;;;;;;;;;;;;;;;;;2209231;67;21671;-69
2022/01/23 14:04:08;;;;;;;;;;;;;;;;;;2208684;63;23482;-69
2022/01/23 14:06:42;;;;;;;;;;;;;;;;;;2210132;59;13592;-69
2022/01/23 14:09:15;;;;;;;;;;;;;;;;;;2208637;59;21723;-69
2022/01/23 14:11:49;;;;;;;;;;;;;;;;;;2208092;59;23069;-70
2022/01/23 14:14:23;;;;;;;;;;;;;;;;;;2209938;67;20178;-69
2022/01/23 14:17:12;;;;;;;;;;;;;;;;;;2210335;64;44914;-69
2022/01/23 14:19:58;;;;;;;;;;;;;;;;;;2210040;67;22482;-69
2022/01/23 14:22:32;;;;;;;;;;;;;;;;;;2211123;67;20200;-69
2022/01/23 14:25:09;;;;;;;;;;;;;;;;;;2210176;59;15252;-69
2022/01/23 14:27:44;;;;;;;;;;;;;;;;;;2208832;63;27459;-71
2022/01/23 14:30:20;;;;;;;;;;;;;;;;;;2209764;59;18242;-69
2022/01/23 14:33:03;;;;;;;;;;;;;;;;;;2208852;59;22487;-69
2022/01/23 14:35:37;;;;;;;;;;;;;;;;;;2208438;59;23602;-69
2022/01/23 14:38:11;;;;;;;;;;;;;;;;;;2210017;63;17473;-69
2022/01/23 14:40:55;;;;;;;;;;;;;;;;;;2210183;64;16095;-70
2022/01/23 14:43:32;;;;;;;;;;;;;;;;;;2208954;67;17754;-69
2022/01/23 14:46:06;;;;;;;;;;;;;;;;;;2208730;67;25218;-69
2022/01/23 14:48:45;;;;;;;;;;;;;;;;;;2210006;59;18425;-72
2022/01/23 14:51:22;;;;;;;;;;;;;;;;;;2208789;59;14979;-72
2022/01/23 14:53:55;;;;;;;;;;;;;;;;;;2208464;59;16659;-72
2022/01/23 14:56:30;;;;;;;;;;;;;;;;;;2209919;67;15476;-72
2022/01/23 14:59:04;;;;;;;;;;;;;;;;;;2209798;59;13839;-72
2022/01/23 15:01:37;;;;;;;;;;;;;;;;;;2208348;59;17722;-71
2022/01/23 15:04:15;;;;;;;;;;;;;;;;;;2210269;67;21317;-69
2022/01/23 15:06:51;;;;;;;;;;;;;;;;;;2209483;59;15254;-69
2022/01/23 15:09:25;;;;;;;;;;;;;;;;;;2209079;59;26748;-69
2022/01/23 15:11:59;;;;;;;;;;;;;;;;;;2209425;59;19950;-72
2022/01/23 15:14:32;;;;;;;;;;;;;;;;;;2209885;67;18240;-69
2022/01/23 15:17:06;;;;;;;;;;;;;;;;;;2209615;59;15665;-69
2022/01/23 15:19:42;;;;;;;;;;;;;;;;;;2209192;64;17719;-69
2022/01/23 15:22:15;;;;;;;;;;;;;;;;;;2208891;59;13669;-69
2022/01/23 15:24:48;;;;;;;;;;;;;;;;;;2209527;59;23268;-69
2022/01/23 15:27:21;;;;;;;;;;;;;;;;;;2207047;59;14570;-69
2022/01/23 15:29:54;;;;;;;;;;;;;;;;;;2209030;59;27756;-69
2022/01/23 15:32:27;;;;;;;;;;;;;;;;;;2209324;59;15197;-69
2022/01/23 15:35:07;;;;;;;;;;;;;;;;;;2209254;59;62815;-69
2022/01/23 15:37:41;;;;;;;;;;;;;;;;;;2209341;59;17684;-69
2022/01/23 15:40:15;;;;;;;;;;;;;;;;;;2210322;67;24191;-69
2022/01/23 15:42:49;;;;;;;;;;;;;;;;;;2210163;67;16537;-69
2022/01/23 15:45:23;;;;;;;;;;;;;;;;;;2209560;67;17381;-69
2022/01/23 15:47:56;;;;;;;;;;;;;;;;;;2209059;59;19221;-72
2022/01/23 15:50:32;;;;;;;;;;;;;;;;;;2210682;67;16076;-72
2022/01/23 15:53:05;;;;;;;;;;;;;;;;;;2209322;59;12853;-71
2022/01/23 15:55:38;;;;;;;;;;;;;;;;;;2208960;59;25622;-72
2022/01/23 15:58:11;;;;;;;;;;;;;;;;;;2210117;59;18249;-71
2022/01/23 16:00:45;;;;;;;;;;;;;;;;;;2207233;59;18468;-72
2022/01/23 16:03:18;;;;;;;;;;;;;;;;;;2210054;59;13087;-72
2022/01/23 16:05:54;;;;;;;;;;;;;;;;;;2209500;59;15893;-72
2022/01/23 16:08:27;;;;;;;;;;;;;;;;;;2209988;67;15105;-71
2022/01/23 16:11:01;;;;;;;;;;;;;;;;;;2208685;59;18626;-72
2022/01/23 16:13:34;;;;;;;;;;;;;;;;;;2207909;59;28220;-72
2022/01/23 16:16:08;;;;;;;;;;;;;;;;;;2210227;67;21680;-72
2022/01/23 16:18:41;;;;;;;;;;;;;;;;;;2210433;67;15958;-71
2022/01/23 16:21:17;;;;;;;;;;;;;;;;;;2206660;59;14987;-72
2022/01/23 16:23:51;;;;;;;;;;;;;;;;;;2208891;59;18569;-71
2022/01/23 16:26:25;;;;;;;;;;;;;;;;;;2210416;64;18213;-72
2022/01/23 16:28:58;;;;;;;;;;;;;;;;;;2210153;67;26650;-71
2022/01/23 16:31:31;;;;;;;;;;;;;;;;;;2208377;59;16590;-71
2022/01/23 16:34:05;;;;;;;;;;;;;;;;;;2209426;59;16684;-72
2022/01/23 16:36:40;;;;;;;;;;;;;;;;;;2209935;60;15451;-71
2022/01/23 16:39:15;;;;;;;;;;;;;;;;;;2209677;67;16075;-71
2022/01/23 16:41:49;;;;;;;;;;;;;;;;;;2208769;59;19670;-71
2022/01/23 16:44:24;;;;;;;;;;;;;;;;;;2210867;59;23685;-71
2022/01/23 16:46:58;;;;;;;;;;;;;;;;;;2209779;59;20751;-71
2022/01/23 16:49:31;;;;;;;;;;;;;;;;;;2209509;67;19758;-71
2022/01/23 16:52:09;;;;;;;;;;;;;;;;;;2209941;59;20392;-71
2022/01/23 16:54:43;;;;;;;;;;;;;;;;;;2209583;59;21178;-71
2022/01/23 16:57:18;;;;;;;;;;;;;;;;;;2209639;63;31836;-71
2022/01/23 16:59:51;;;;;;;;;;;;;;;;;;2209185;59;17925;-71
2022/01/23 17:02:24;;;;;;;;;;;;;;;;;;2209767;66;14800;-72
2022/01/23 17:04:57;;;;;;;;;;;;;;;;;;2210193;59;19439;-71
2022/01/23 17:07:33;;;;;;;;;;;;;;;;;;2209122;64;16443;-71
2022/01/23 17:10:08;;;;;;;;;;;;;;;;;;2210145;67;14840;-71
2022/01/23 17:12:41;;;;;;;;;;;;;;;;;;2208600;59;20131;-71
2022/01/23 17:15:14;;;;;;;;;;;;;;;;;;2209249;63;13288;-71
2022/01/23 17:17:48;;;;;;;;;;;;;;;;;;2208969;59;26192;-71
2022/01/23 17:20:22;;;;;;;;;;;;;;;;;;2210149;67;12479;-71
2022/01/23 17:22:58;;;;;;;;;;;;;;;;;;2209680;59;14867;-71
2022/01/23 17:25:31;;;;;;;;;;;;;;;;;;2209059;59;14635;-71
2022/01/23 17:28:04;;;;;;;;;;;;;;;;;;2210250;59;13923;-72
2022/01/23 17:30:38;;;;;;;;;;;;;;;;;;2209736;59;17432;-71
2022/01/23 17:33:11;;;;;;;;;;;;;;;;;;2208722;59;21724;-71
2022/01/23 17:35:45;;;;;;;;;;;;;;;;;;2209417;59;15226;-72
2022/01/23 17:38:21;;;;;;;;;;;;;;;;;;2209670;59;15299;-71
2022/01/23 17:40:54;;;;;;;;;;;;;;;;;;2209664;67;15000;-72
2022/01/23 17:43:27;;;;;;;;;;;;;;;;;;2204829;59;17216;-72
2022/01/23 17:46:01;;;;;;;;;;;;;;;;;;2211637;59;16287;-71
2022/01/23 17:48:47;;;;;;;;;;;;;;;;;;2209424;59;67453;-71
2022/01/23 17:51:20;;;;;;;;;;;;;;;;;;2207703;59;14318;-71
2022/01/23 17:53:59;;;;;;;;;;;;;;;;;;2208481;59;17112;-71
2022/01/23 17:56:32;;;;;;;;;;;;;;;;;;2209358;59;18429;-72
2022/01/23 17:59:05;;;;;;;;;;;;;;;;;;2209212;67;15842;-72
2022/01/23 18:01:40;;;;;;;;;;;;;;;;;;2209184;59;19005;-71
2022/01/23 18:04:13;;;;;;;;;;;;;;;;;;2210674;59;28328;-72
2022/01/23 18:06:46;;;;;;;;;;;;;;;;;;2209948;63;17523;-71
2022/01/23 18:09:23;;;;;;;;;;;;;;;;;;2209628;59;12290;-72
2022/01/23 18:11:56;;;;;;;;;;;;;;;;;;2207898;59;14546;-71
2022/01/23 18:14:29;;;;;;;;;;;;;;;;;;2209611;67;14973;-71
2022/01/23 18:17:03;;;;;;;;;;;;;;;;;;2209677;59;15878;-71
2022/01/23 18:19:36;;;;;;;;;;;;;;;;;;2209248;67;22553;-72
2022/01/23 18:22:09;;;;;;;;;;;;;;;;;;2209518;59;20260;-71
2022/01/23 18:24:45;;;;;;;;;;;;;;;;;;2209622;59;19027;-71
2022/01/23 18:27:18;;;;;;;;;;;;;;;;;;2209228;59;21398;-72
2022/01/23 18:29:51;;;;;;;;;;;;;;;;;;2208673;67;19800;-71
2022/01/23 18:32:25;;;;;;;;;;;;;;;;;;2209558;59;15595;-71
2022/01/23 18:34:58;;;;;;;;;;;;;;;;;;2209372;59;16040;-71
2022/01/23 18:37:32;;;;;;;;;;;;;;;;;;2209004;63;21701;-71
2022/01/23 18:40:09;;;;;;;;;;;;;;;;;;2209483;59;17639;-71
2022/01/23 18:42:42;;;;;;;;;;;;;;;;;;2209173;59;14538;-71
2022/01/23 18:45:16;;;;;;;;;;;;;;;;;;2208925;67;19470;-72
2022/01/23 18:47:49;;;;;;;;;;;;;;;;;;2208744;59;16582;-71
2022/01/23 18:50:22;;;;;;;;;;;;;;;;;;2207951;59;13245;-71
2022/01/23 18:53:01;;;;;;;;;;;;;;;;;;2208580;59;26917;-71
2022/01/23 18:55:38;;;;;;;;;;;;;;;;;;2208523;59;21224;-71
2022/01/23 18:58:14;;;;;;;;;;;;;;;;;;2209825;59;14998;-71
2022/01/23 19:00:49;;;;;;;;;;;;;;;;;;2208815;67;17168;-72
2022/01/23 19:03:23;;;;;;;;;;;;;;;;;;2209546;67;16459;-71
2022/01/23 19:06:01;;;;;;;;;;;;;;;;;;2209035;64;29234;-71
2022/01/23 19:08:35;;;;;;;;;;;;;;;;;;2209137;67;17372;-71
2022/01/23 19:11:11;;;;;;;;;;;;;;;;;;2208920;59;13582;-71
2022/01/23 19:13:44;;;;;;;;;;;;;;;;;;2207705;59;23576;-72
2022/01/23 19:16:17;;;;;;;;;;;;;;;;;;2209653;59;12590;-71
2022/01/23 19:18:50;;;;;;;;;;;;;;;;;;2209710;59;13695;-72
2022/01/23 19:21:24;;;;;;;;;;;;;;;;;;2208379;67;17603;-72
2022/01/23 19:23:59;;;;;;;;;;;;;;;;;;2209984;59;17995;-71
2022/01/23 19:26:35;;;;;;;;;;;;;;;;;;2209544;63;15527;-71
2022/01/23 19:29:09;;;;;;;;;;;;;;;;;;2208900;59;16510;-71
2022/01/23 19:31:43;;;;;;;;;;;;;;;;;;2208658;53;29801;-73
2022/01/23 19:34:16;;;;;;;;;;;;;;;;;;2207627;67;39104;-73
2022/01/23 19:36:49;;;;;;;;;;;;;;;;;;2177230;67;1851673;-73
2022/01/23 19:39:27;;;;;;;;;;;;;;;;;;2208935;64;17291;-73
2022/01/23 19:42:11;;;;;;;;;;;;;;;;;;2206293;59;35834;-73
2022/01/23 19:44:48;;;;;;;;;;;;;;;;;;2205297;59;32575;-73
2022/01/23 19:47:26;;;;;;;;;;;;;;;;;;2206337;59;20024;-73
2022/01/23 19:50:03;;;;;;;;;;;;;;;;;;2203727;59;16140;-73
2022/01/23 19:52:36;;;;;;;;;;;;;;;;;;2206063;59;32393;-73
2022/01/23 19:55:13;;;;;;;;;;;;;;;;;;2203605;59;21250;-73
2022/01/23 19:57:49;;;;;;;;;;;;;;;;;;2204241;59;58243;-73
2022/01/23 20:00:25;;;;;;;;;;;;;;;;;;2205683;59;33351;-73
2022/01/23 20:02:59;;;;;;;;;;;;;;;;;;2201754;59;19208;-73
2022/01/23 20:05:32;;;;;;;;;;;;;;;;;;2203430;67;111161;-73
2022/01/23 20:08:10;;;;;;;;;;;;;;;;;;1893962;59;21041765;-73
2022/01/23 20:11:08;;;;;;;;;;;;;;;;;;2205408;59;27109;-73
2022/01/23 20:13:44;;;;;;;;;;;;;;;;;;2204086;67;78142;-75
2022/01/23 20:16:18;;;;;;;;;;;;;;;;;;2205771;64;26410;-74
2022/01/23 20:18:51;;;;;;;;;;;;;;;;;;2206900;59;23330;-73
2022/01/23 20:21:24;;;;;;;;;;;;;;;;;;2204174;59;79289;-73
2022/01/23 20:23:59;;;;;;;;;;;;;;;;;;2206753;59;17257;-73
2022/01/23 20:26:33;;;;;;;;;;;;;;;;;;2207172;67;26578;-73
2022/01/23 20:29:09;;;;;;;;;;;;;;;;;;2205692;59;20654;-73
2022/01/23 20:31:43;;;;;;;;;;;;;;;;;;2203256;59;162168;-74
2022/01/23 20:34:16;;;;;;;;;;;;;;;;;;2205330;59;17714;-73